createdAt,value
2023-02-16T00:04:10.939Z,55.8
2023-02-16T00:10:42.158Z,52.6
2023-02-16T00:16:53.973Z,55.5
2023-02-16T00:23:02.087Z,55.5
2023-02-16T00:28:55.344Z,55.2
2023-02-16T00:35:16.444Z,59.2
2023-02-16T00:41:14.785Z,57.1
2023-02-16T00:47:13.027Z,58.6
2023-02-16T00:53:05.106Z,56.3
2023-02-16T00:59:21.941Z,56.1
2023-02-16T01:11:21.096Z,57.5
2023-02-16T01:17:22.677Z,54.1
2023-02-16T01:23:26.823Z,54.2
2023-02-16T01:29:28.018Z,54.7
2023-02-16T01:35:21.888Z,57.7
2023-02-16T01:41:35.706Z,54.6
2023-02-16T01:47:42.383Z,55.4
2023-02-16T01:53:45.913Z,58.8
2023-02-16T01:59:44.485Z,59
2023-02-16T02:11:52.132Z,57.5
2023-02-16T02:17:56.608Z,57.3
2023-02-16T02:24:04.671Z,60.3
2023-02-16T02:35:52.562Z,59.9
2023-02-16T02:42:16.065Z,57.5
2023-02-16T02:54:42.102Z,60.7
2023-02-16T03:00:34.939Z,59.3
2023-02-16T03:06:35.549Z,62.9
2023-02-16T03:12:26.113Z,60.5
2023-02-16T03:18:25.080Z,60.7
2023-02-16T03:24:29.063Z,64.4
2023-02-16T03:30:22.726Z,63.6
2023-02-16T03:36:17.563Z,64.2
2023-02-16T03:42:22.122Z,64.1
2023-02-16T03:48:12.892Z,63
2023-02-16T03:54:04.322Z,66
2023-02-16T04:00:00.264Z,65.9
2023-02-16T04:05:52.526Z,65.8
2023-02-16T04:11:55.612Z,66
2023-02-16T04:17:59.836Z,62.7
2023-02-16T04:23:53.539Z,63.8
2023-02-16T04:29:46.417Z,68.1
2023-02-16T04:35:52.191Z,66.2
2023-02-16T04:47:58.515Z,69.7
2023-02-16T04:54:09.021Z,69.7
2023-02-16T05:00:01.811Z,67.1
2023-02-16T05:05:53.594Z,69.8
2023-02-16T05:11:45.432Z,69
2023-02-16T05:17:45.651Z,69.5
2023-02-16T05:23:55.697Z,71.3
2023-02-16T05:29:45.980Z,72.6
2023-02-16T05:35:36.618Z,71
2023-02-16T05:41:28.549Z,71.6
2023-02-16T05:47:18.307Z,72
2023-02-16T05:53:08.920Z,72.2
2023-02-16T05:59:01.293Z,77.5
2023-02-16T06:04:52.738Z,77.3
2023-02-16T06:10:42.008Z,77.3
2023-02-16T06:16:32.221Z,76.9
2023-02-16T06:22:21.260Z,77.4
2023-02-16T06:28:11.159Z,74.5
2023-02-16T06:34:05.098Z,73.8
2023-02-16T06:40:10.195Z,77.2
2023-02-16T06:47:24.914Z,74.4
2023-02-16T06:53:15.725Z,76.2
2023-02-16T06:59:07.153Z,77
2023-02-16T07:04:58.256Z,75.4
2023-02-16T07:11:07.641Z,77.3
2023-02-16T07:16:57.992Z,79.1
2023-02-16T07:22:47.124Z,76.3
2023-02-16T07:28:35.335Z,74.9
2023-02-16T07:34:25.827Z,72.9
2023-02-16T07:40:16.176Z,112.6
2023-02-16T07:46:05.742Z,77.9
2023-02-16T07:51:56.582Z,77.5
2023-02-16T07:57:46.460Z,81.7
2023-02-16T08:03:49.611Z,77.2
2023-02-16T08:09:48.172Z,74.4
2023-02-16T08:15:43.780Z,71.1
2023-02-16T08:21:34.059Z,74.1
2023-02-16T08:27:28.711Z,67.5
2023-02-16T08:33:20.197Z,69.1
2023-02-16T08:39:11.300Z,68.5
2023-02-16T08:45:02.778Z,66.8
2023-02-16T08:50:52.239Z,68.7
2023-02-16T08:56:43.880Z,63.7
2023-02-16T09:02:35.367Z,65.7
2023-02-16T09:08:28.518Z,69.1
2023-02-16T09:14:20.297Z,66.7
2023-02-16T09:20:10.069Z,68.2
2023-02-16T09:26:02.421Z,66.6
2023-02-16T09:31:54.508Z,64.1
2023-02-16T09:37:44.988Z,65.7
2023-02-16T09:43:37.833Z,65.9
2023-02-16T09:49:39.333Z,60.1
2023-02-16T09:55:30.743Z,83.5
2023-02-16T10:01:20.925Z,83.8
2023-02-16T10:07:14.404Z,144.7
2023-02-16T10:13:06.028Z,113.2
2023-02-16T10:18:57.871Z,74.5
2023-02-16T10:24:49.743Z,61
2023-02-16T10:30:45.482Z,58.5
2023-02-16T10:36:49.300Z,57
2023-02-16T10:42:40.761Z,55.4
2023-02-16T10:48:30.852Z,53.1
2023-02-16T10:54:25.001Z,55.3
2023-02-16T11:00:26.863Z,52.1
2023-02-16T11:06:19.972Z,54.1
2023-02-16T11:12:11.092Z,53.6
2023-02-16T11:18:37.150Z,54.7
2023-02-16T11:24:40.264Z,51.1
2023-02-16T11:30:40.518Z,49.6
2023-02-16T11:36:31.500Z,50.7
2023-02-16T11:42:22.187Z,47.4
2023-02-16T11:48:12.527Z,48.5
2023-02-16T11:54:15.036Z,49.3
2023-02-16T12:00:09.814Z,49
2023-02-16T12:06:00.254Z,53.1
2023-02-16T12:11:57.314Z,51.4
2023-02-16T12:17:48.248Z,50.5
2023-02-16T12:23:39.320Z,50.9
2023-02-16T12:29:34.403Z,47.9
2023-02-16T12:35:28.733Z,52.8
2023-02-16T12:41:21.413Z,49.9
2023-02-16T12:47:11.354Z,54.2
2023-02-16T12:53:01.920Z,51
2023-02-16T12:58:50.937Z,48.8
2023-02-16T13:04:50.818Z,52.6
2023-02-16T13:10:45.791Z,46.9
2023-02-16T13:23:05.621Z,48.5
2023-02-16T13:28:59.920Z,52.6
2023-02-16T13:41:46.108Z,52.5
2023-02-16T13:53:58.754Z,51.5
2023-02-16T14:00:02.254Z,50.2
2023-02-16T14:05:51.103Z,49.3
2023-02-16T14:11:49.532Z,48.5
2023-02-16T14:17:45.737Z,45.9
2023-02-16T14:23:47.907Z,50.2
2023-02-16T14:29:53.904Z,44.7
2023-02-16T14:35:57.727Z,47.4
2023-02-16T14:41:47.924Z,46.1
2023-02-16T14:47:49.838Z,46.6
2023-02-16T14:54:14.471Z,45.7
2023-02-16T15:00:12.609Z,44
2023-02-16T15:06:17.212Z,42.4
2023-02-16T15:18:12.067Z,44.4
2023-02-16T15:24:14.648Z,40.4
2023-02-16T15:30:04.276Z,42.2
2023-02-16T15:35:56.502Z,37.9
2023-02-16T15:41:50.480Z,37.6
2023-02-16T15:47:54.021Z,41.3
2023-02-16T15:53:55.186Z,34.7
2023-02-16T15:59:46.641Z,37.8
2023-02-16T16:05:35.328Z,39
2023-02-16T16:11:26.361Z,37.6
2023-02-16T16:17:30.073Z,35
2023-02-16T16:23:20.850Z,30.9
2023-02-16T16:29:13.450Z,27.5
2023-02-16T16:35:08.731Z,30
2023-02-16T16:41:01.215Z,27.7
2023-02-16T16:46:51.375Z,28.3
2023-02-16T16:53:00.093Z,26.9
2023-02-16T16:58:51.766Z,27.3
2023-02-16T17:04:40.880Z,26.8
2023-02-16T17:10:29.834Z,26
2023-02-16T17:16:19.807Z,30.4
2023-02-16T17:22:12.370Z,30.7
2023-02-16T17:28:02.698Z,32
2023-02-16T17:33:55.607Z,25.9
2023-02-16T17:39:46.284Z,24.2
2023-02-16T17:45:39.649Z,27.5
2023-02-16T17:51:29.790Z,24.4
2023-02-16T17:57:21.208Z,25
2023-02-16T18:03:13.629Z,25.8
2023-02-16T18:09:05.789Z,31.8
2023-02-16T18:14:58.768Z,35
2023-02-16T18:20:55.522Z,34.6
2023-02-16T18:26:46.949Z,30.2
2023-02-16T18:32:38.103Z,30.4
2023-02-16T18:38:28.875Z,32.4
2023-02-16T18:44:22.613Z,31.5
2023-02-16T18:50:20.273Z,29.7
2023-02-16T18:56:10.956Z,29.7
2023-02-16T19:02:00.886Z,27
2023-02-16T19:07:54.840Z,26.3
2023-02-16T19:13:44.987Z,26.6
2023-02-16T19:19:35.755Z,27.3
2023-02-16T19:25:25.935Z,26
2023-02-16T19:31:15.233Z,26.9
2023-02-16T19:37:06.958Z,28.5
2023-02-16T19:42:57.061Z,25.6
2023-02-16T19:48:47.084Z,26
2023-02-16T19:54:37.137Z,30.5
2023-02-16T20:00:28.088Z,28.7
2023-02-16T20:06:17.327Z,26.5
2023-02-16T20:12:07.567Z,28.1
2023-02-16T20:18:00.657Z,29.2
2023-02-16T20:23:53.510Z,29
2023-02-16T20:29:43.848Z,27.5
2023-02-16T20:35:35.918Z,30.3
2023-02-16T20:41:27.308Z,29
2023-02-16T20:47:18.867Z,28.7
2023-02-16T20:53:10.976Z,30.1
2023-02-16T20:59:03.072Z,30.1
2023-02-16T21:04:53.523Z,29.5
2023-02-16T21:10:56.859Z,29.3
2023-02-16T21:16:45.960Z,30.8
2023-02-16T21:22:35.116Z,29.8
2023-02-16T21:28:26.745Z,29.4
2023-02-16T21:34:16.442Z,28.8
2023-02-16T21:40:07.505Z,29.3
2023-02-16T21:46:02.551Z,30
2023-02-16T21:51:53.952Z,29.7
2023-02-16T21:57:46.210Z,30.2
2023-02-16T22:03:36.576Z,26.8
2023-02-16T22:09:28.220Z,28.5
2023-02-16T22:15:20.796Z,24.3
2023-02-16T22:21:10.913Z,24.3
2023-02-16T22:27:02.124Z,26.3
2023-02-16T22:32:57.433Z,26
2023-02-16T22:38:49.207Z,25
2023-02-16T22:44:42.767Z,24.3
2023-02-16T22:50:33.176Z,24.3
2023-02-16T22:56:22.045Z,25.5
2023-02-16T23:02:31.764Z,24.3
2023-02-16T23:08:35.251Z,22.8
2023-02-16T23:14:46.228Z,21.5
2023-02-16T23:21:11.311Z,21.2
2023-02-16T23:27:04.967Z,25.4
2023-02-16T23:32:58.032Z,27.3
2023-02-16T23:39:08.989Z,29.1
2023-02-16T23:51:41.707Z,27.6
2023-02-16T23:57:32.309Z,25.9
